createdAt,value
2022-10-11T00:01:01.619Z,7.74
2022-10-11T00:03:36.299Z,7.74
2022-10-11T00:06:06.504Z,7.74
2022-10-11T00:08:35.835Z,7.74
2022-10-11T00:11:06.476Z,7.73
2022-10-11T00:13:34.892Z,7.72
2022-10-11T00:16:10.245Z,7.69
2022-10-11T00:18:39.069Z,7.66
2022-10-11T00:21:13.923Z,7.66
2022-10-11T00:23:43.064Z,7.64
2022-10-11T00:26:12.186Z,7.62
2022-10-11T00:28:41.107Z,7.61
2022-10-11T00:31:11.712Z,7.59
2022-10-11T00:33:40.187Z,7.56
2022-10-11T00:36:09.423Z,7.52
2022-10-11T00:38:37.613Z,7.47
2022-10-11T00:41:05.778Z,7.43
2022-10-11T00:43:34.339Z,7.41
2022-10-11T00:46:13.466Z,7.40
2022-10-11T00:48:49.274Z,7.40
2022-10-11T00:51:24.620Z,7.39
2022-10-11T00:53:53.748Z,7.39
2022-10-11T00:56:28.178Z,7.39
2022-10-11T00:58:57.873Z,7.38
2022-10-11T01:01:26.741Z,7.38
2022-10-11T01:03:56.045Z,7.38
2022-10-11T01:06:24.218Z,7.38
2022-10-11T01:08:53.259Z,7.38
2022-10-11T01:11:25.105Z,7.38
2022-10-11T01:14:14.723Z,7.39
2022-10-11T01:16:52.856Z,7.40
2022-10-11T01:19:53.605Z,7.40
2022-10-11T01:22:27.675Z,7.40
2022-10-11T01:25:08.016Z,7.41
2022-10-11T01:28:20.776Z,7.42
2022-10-11T01:30:50.945Z,7.43
2022-10-11T01:33:19.081Z,7.43
2022-10-11T01:36:08.701Z,7.45
2022-10-11T01:38:52.720Z,7.47
2022-10-11T01:41:30.259Z,7.48
2022-10-11T01:44:01.342Z,7.49
2022-10-11T01:46:31.061Z,7.50
2022-10-11T01:49:01.581Z,7.52
2022-10-11T01:51:45.205Z,7.53
2022-10-11T01:55:08.035Z,7.54
2022-10-11T01:58:20.730Z,7.56
2022-10-11T02:01:29.206Z,7.59
2022-10-11T02:04:06.801Z,7.60
2022-10-11T02:06:46.564Z,7.61
2022-10-11T02:09:35.775Z,7.63
2022-10-11T02:12:09.448Z,7.64
2022-10-11T02:14:42.413Z,7.65
2022-10-11T02:17:18.655Z,7.65
2022-10-11T02:19:53.211Z,7.63
2022-10-11T02:22:32.227Z,7.61
2022-10-11T02:25:05.497Z,7.60
2022-10-11T02:27:38.220Z,7.60
2022-10-11T02:30:07.704Z,7.60
2022-10-11T02:32:40.824Z,7.58
2022-10-11T02:35:10.249Z,7.58
2022-10-11T02:37:58.553Z,7.57
2022-10-11T02:40:33.466Z,7.57
2022-10-11T02:43:19.720Z,7.56
2022-10-11T02:45:55.898Z,7.57
2022-10-11T02:48:27.536Z,7.57
2022-10-11T02:50:57.444Z,7.57
2022-10-11T02:53:26.985Z,7.57
2022-10-11T02:55:55.700Z,7.56
2022-10-11T02:58:24.790Z,7.55
2022-10-11T03:00:52.899Z,7.54
2022-10-11T03:03:20.965Z,7.54
2022-10-11T03:05:49.468Z,7.54
2022-10-11T03:08:18.141Z,7.54
2022-10-11T03:10:46.368Z,7.54
2022-10-11T03:13:18.121Z,7.52
2022-10-11T03:16:02.909Z,7.52
2022-10-11T03:18:31.943Z,7.52
2022-10-11T03:21:00.103Z,7.51
2022-10-11T03:23:28.302Z,7.51
2022-10-11T03:25:56.666Z,7.50
2022-10-11T03:28:24.923Z,7.51
2022-10-11T03:30:53.218Z,7.50
2022-10-11T03:33:21.472Z,7.50
2022-10-11T03:35:50.159Z,7.49
2022-10-11T03:38:21.449Z,7.50
2022-10-11T03:40:49.812Z,7.49
2022-10-11T03:43:18.073Z,7.50
2022-10-11T03:45:46.511Z,7.51
2022-10-11T03:48:14.627Z,7.51
2022-10-11T03:50:42.635Z,7.51
2022-10-11T03:53:11.004Z,7.49
2022-10-11T03:55:40.379Z,7.48
2022-10-11T03:58:09.306Z,7.49
2022-10-11T04:00:37.521Z,7.47
2022-10-11T04:03:05.532Z,7.46
2022-10-11T04:05:33.743Z,7.45
2022-10-11T04:08:01.822Z,7.44
2022-10-11T04:10:31.192Z,7.45
2022-10-11T04:12:59.351Z,7.45
2022-10-11T04:15:27.549Z,7.43
2022-10-11T04:17:55.738Z,7.42
2022-10-11T04:20:23.820Z,7.42
2022-10-11T04:22:51.814Z,7.41
2022-10-11T04:25:19.989Z,7.40
2022-10-11T04:27:48.619Z,7.40
2022-10-11T04:30:17.412Z,7.41
2022-10-11T04:32:45.421Z,7.40
2022-10-11T04:35:13.824Z,7.41
2022-10-11T04:37:41.978Z,7.41
2022-10-11T04:40:10.841Z,7.41
2022-10-11T04:42:38.914Z,7.42
2022-10-11T04:45:07.460Z,7.42
2022-10-11T04:47:35.772Z,7.42
2022-10-11T04:50:04.666Z,7.41
2022-10-11T04:52:32.824Z,7.41
2022-10-11T04:55:00.910Z,7.40
2022-10-11T04:57:28.960Z,7.41
2022-10-11T04:59:56.951Z,7.42
2022-10-11T05:02:25.126Z,7.42
2022-10-11T05:04:56.085Z,7.42
2022-10-11T05:07:24.225Z,7.39
2022-10-11T05:09:52.338Z,7.39
2022-10-11T05:12:22.656Z,7.40
2022-10-11T05:14:50.850Z,7.39
2022-10-11T05:17:22.078Z,7.38
2022-10-11T05:19:50.450Z,7.36
2022-10-11T05:22:18.683Z,7.34
2022-10-11T05:24:46.754Z,7.31
2022-10-11T05:27:15.125Z,7.30
2022-10-11T05:29:43.201Z,7.30
2022-10-11T05:32:11.232Z,7.30
2022-10-11T05:34:39.321Z,7.29
2022-10-11T05:37:07.345Z,7.27
2022-10-11T05:39:35.374Z,7.24
2022-10-11T05:42:07.657Z,7.21
2022-10-11T05:44:37.679Z,7.21
2022-10-11T05:47:05.812Z,7.21
2022-10-11T05:49:33.821Z,7.18
2022-10-11T05:52:01.818Z,7.18
2022-10-11T05:54:31.146Z,7.18
2022-10-11T05:56:59.205Z,7.18
2022-10-11T05:59:27.649Z,7.19
2022-10-11T06:01:55.854Z,7.19
2022-10-11T06:04:23.796Z,7.21
2022-10-11T06:06:51.780Z,7.23
2022-10-11T06:09:19.738Z,7.25
2022-10-11T06:11:47.851Z,7.27
2022-10-11T06:14:16.028Z,7.25
2022-10-11T06:16:44.039Z,7.29
2022-10-11T06:19:12.102Z,7.30
2022-10-11T06:21:40.605Z,7.35
2022-10-11T06:24:09.402Z,7.39
2022-10-11T06:26:37.553Z,7.44
2022-10-11T06:29:06.060Z,7.49
2022-10-11T06:31:34.447Z,7.55
2022-10-11T06:34:02.419Z,7.61
2022-10-11T06:36:31.301Z,7.65
2022-10-11T06:39:01.498Z,7.70
2022-10-11T06:41:30.949Z,7.76
2022-10-11T06:43:59.105Z,7.81
2022-10-11T06:46:28.801Z,7.86
2022-10-11T06:48:56.926Z,7.93
2022-10-11T06:51:26.036Z,8.00
2022-10-11T06:53:56.970Z,8.05
2022-10-11T06:56:27.217Z,8.12
2022-10-11T06:58:56.522Z,8.19
2022-10-11T07:01:24.844Z,8.26
2022-10-11T07:03:55.374Z,8.33
2022-10-11T07:06:26.622Z,8.42
2022-10-11T07:08:55.204Z,8.52
2022-10-11T07:11:26.697Z,8.62
2022-10-11T07:14:00.335Z,8.73
2022-10-11T07:16:29.211Z,8.83
2022-10-11T07:19:01.201Z,8.95
2022-10-11T07:21:31.400Z,9.08
2022-10-11T07:24:00.318Z,9.20
2022-10-11T07:26:33.789Z,9.33
2022-10-11T07:29:05.244Z,9.49
2022-10-11T07:31:33.518Z,9.62
2022-10-11T07:34:01.518Z,9.76
2022-10-11T07:36:29.702Z,9.88
2022-10-11T07:38:58.098Z,9.97
2022-10-11T07:41:26.108Z,10.06
2022-10-11T07:43:55.195Z,10.16
2022-10-11T07:46:23.173Z,10.25
2022-10-11T07:48:51.266Z,10.34
2022-10-11T07:51:21.933Z,10.47
2022-10-11T07:53:52.799Z,10.61
2022-10-11T07:56:26.913Z,10.72
2022-10-11T07:59:00.732Z,10.86
2022-10-11T08:01:29.133Z,11.07
2022-10-11T08:03:57.804Z,11.26
2022-10-11T08:06:30.730Z,11.42
2022-10-11T08:09:00.691Z,11.61
2022-10-11T08:11:32.538Z,11.80
2022-10-11T08:14:02.385Z,12.03
2022-10-11T08:16:30.445Z,12.24
2022-10-11T08:18:58.861Z,12.45
2022-10-11T08:21:27.155Z,12.68
2022-10-11T08:23:55.185Z,12.84
2022-10-11T08:26:24.199Z,12.96
2022-10-11T08:28:52.501Z,13.14
2022-10-11T08:31:20.978Z,13.37
2022-10-11T08:33:49.043Z,13.63
2022-10-11T08:36:17.053Z,13.91
2022-10-11T08:38:45.040Z,14.23
2022-10-11T08:41:47.699Z,14.53
2022-10-11T08:44:58.216Z,14.77
2022-10-11T08:47:37.967Z,14.91
2022-10-11T08:50:07.137Z,14.95
2022-10-11T08:52:38.109Z,14.89
2022-10-11T08:55:12.624Z,14.80
2022-10-11T08:57:44.170Z,14.81
2022-10-11T09:00:17.208Z,14.82
2022-10-11T09:03:09.006Z,14.81
2022-10-11T09:06:13.959Z,14.75
2022-10-11T09:08:54.189Z,14.71
2022-10-11T09:11:45.782Z,14.73
2022-10-11T09:14:14.033Z,14.78
2022-10-11T09:17:16.701Z,14.82
2022-10-11T09:20:09.748Z,14.85
2022-10-11T09:23:04.990Z,14.90
2022-10-11T09:25:58.988Z,14.95
2022-10-11T09:28:57.403Z,15.00
2022-10-11T09:31:29.761Z,15.01
2022-10-11T09:33:59.637Z,15.06
2022-10-11T09:36:47.207Z,15.13
2022-10-11T09:39:31.889Z,15.18
2022-10-11T09:42:07.020Z,15.19
2022-10-11T09:44:37.913Z,15.26
2022-10-11T09:47:07.232Z,15.33
2022-10-11T09:49:45.009Z,15.41
2022-10-11T09:52:19.792Z,15.51
2022-10-11T09:54:51.810Z,15.63
2022-10-11T09:57:24.388Z,15.73
2022-10-11T10:00:00.496Z,15.82
2022-10-11T10:02:30.933Z,15.89
2022-10-11T10:05:14.174Z,16.03
2022-10-11T10:08:01.608Z,16.21
2022-10-11T10:10:43.529Z,16.43
2022-10-11T10:13:28.871Z,16.70
2022-10-11T10:16:01.358Z,17.04
2022-10-11T10:18:50.497Z,17.34
2022-10-11T10:21:27.829Z,17.66
2022-10-11T10:23:57.834Z,18.01
2022-10-11T10:26:27.232Z,18.26
2022-10-11T10:29:09.868Z,18.51
2022-10-11T10:32:13.018Z,18.79
2022-10-11T10:34:53.231Z,19.15
2022-10-11T10:37:32.899Z,19.44
2022-10-11T10:40:26.101Z,19.69
2022-10-11T10:42:56.524Z,19.95
2022-10-11T10:45:35.675Z,20.13
2022-10-11T10:48:16.085Z,20.37
2022-10-11T10:51:18.171Z,20.57
2022-10-11T10:53:57.462Z,20.82
2022-10-11T10:56:36.131Z,21.08
2022-10-11T10:59:19.934Z,21.24
2022-10-11T11:02:11.091Z,21.34
2022-10-11T11:05:36.487Z,21.47
2022-10-11T11:08:23.263Z,21.52
2022-10-11T11:11:00.158Z,21.63
2022-10-11T11:13:43.553Z,21.71
2022-10-11T11:16:22.277Z,21.89
2022-10-11T11:18:58.413Z,22.06
2022-10-11T11:21:55.643Z,22.20
2022-10-11T11:24:56.681Z,22.27
2022-10-11T11:27:36.691Z,22.29
2022-10-11T11:30:21.915Z,22.35
2022-10-11T11:33:37.240Z,22.43
2022-10-11T11:36:15.029Z,22.59
2022-10-11T11:38:54.002Z,22.75
2022-10-11T11:41:45.366Z,22.88
2022-10-11T11:44:38.113Z,23.04
2022-10-11T11:47:18.086Z,23.11
2022-10-11T11:50:09.774Z,23.14
2022-10-11T11:52:44.081Z,23.22
2022-10-11T11:55:42.513Z,23.28
2022-10-11T11:58:31.802Z,23.32
2022-10-11T12:01:30.251Z,23.53
2022-10-11T12:04:25.730Z,23.57
2022-10-11T12:07:16.260Z,23.67
2022-10-11T12:09:51.771Z,23.87
2022-10-11T12:12:34.154Z,23.95
2022-10-11T12:15:04.472Z,23.95
2022-10-11T12:17:33.939Z,24.01
2022-10-11T12:20:25.452Z,24.17
2022-10-11T12:23:24.685Z,24.32
2022-10-11T12:26:31.063Z,24.42
2022-10-11T12:29:18.369Z,24.31
2022-10-11T12:32:09.234Z,24.31
2022-10-11T12:37:20.195Z,24.33
2022-10-11T17:48:36.502Z,13.72
2022-10-11T17:51:14.071Z,13.69
2022-10-11T17:53:42.640Z,13.69
2022-10-11T17:56:13.860Z,13.70
2022-10-11T17:58:43.129Z,13.70
2022-10-11T18:01:14.462Z,13.72
2022-10-11T18:03:43.719Z,13.73
2022-10-11T18:06:13.761Z,13.74
2022-10-11T18:08:42.084Z,13.75
2022-10-11T18:11:13.073Z,13.74
2022-10-11T18:13:46.179Z,13.74
2022-10-11T18:16:16.471Z,13.73
2022-10-11T18:18:44.771Z,13.73
2022-10-11T18:21:13.514Z,13.72
2022-10-11T18:23:42.345Z,13.73
2022-10-11T18:26:16.672Z,13.72
2022-10-11T18:28:45.970Z,13.71
2022-10-11T18:31:17.957Z,13.71
2022-10-11T18:33:47.366Z,13.71
2022-10-11T18:36:17.194Z,13.70
2022-10-11T18:38:46.445Z,13.70
2022-10-11T18:41:17.471Z,13.70
2022-10-11T18:43:54.663Z,13.71
2022-10-11T18:46:26.600Z,13.71
2022-10-11T18:48:56.976Z,13.71
2022-10-11T18:51:27.971Z,13.70
2022-10-11T18:53:58.484Z,13.69
2022-10-11T18:56:28.356Z,13.69
2022-10-11T18:58:57.702Z,13.68
2022-10-11T19:01:34.013Z,13.68
2022-10-11T19:04:03.120Z,13.68
2022-10-11T19:06:35.402Z,13.66
2022-10-11T19:09:21.617Z,13.66
2022-10-11T19:11:51.993Z,13.65
2022-10-11T19:14:25.654Z,13.65
2022-10-11T19:16:54.949Z,13.64
2022-10-11T19:19:26.259Z,13.63
2022-10-11T19:21:54.385Z,13.62
2022-10-11T19:24:25.962Z,13.60
2022-10-11T19:26:58.424Z,13.59
2022-10-11T19:29:29.805Z,13.59
2022-10-11T19:32:00.661Z,13.58
2022-10-11T19:34:30.107Z,13.57
2022-10-11T19:37:00.879Z,13.56
2022-10-11T19:39:29.872Z,13.56
2022-10-11T19:41:57.976Z,13.56
2022-10-11T19:44:26.080Z,13.56
2022-10-11T19:46:54.188Z,13.54
2022-10-11T19:49:26.052Z,13.54
2022-10-11T19:51:55.696Z,13.54
2022-10-11T19:54:24.281Z,13.52
2022-10-11T19:56:52.713Z,13.51
2022-10-11T19:59:20.833Z,13.51
2022-10-11T20:01:52.693Z,13.50
2022-10-11T20:04:50.611Z,13.49
2022-10-11T20:07:10.785Z,13.47
2022-10-11T20:09:39.041Z,13.47
2022-10-11T20:12:07.477Z,13.46
2022-10-11T20:14:36.372Z,13.45
2022-10-11T20:17:04.411Z,13.44
2022-10-11T20:19:32.780Z,13.41
2022-10-11T20:22:01.779Z,13.39
2022-10-11T20:24:33.693Z,13.37
2022-10-11T20:27:03.684Z,13.35
2022-10-11T20:29:32.514Z,13.33
2022-10-11T20:32:00.569Z,13.31
2022-10-11T20:34:28.887Z,13.30
2022-10-11T20:36:57.129Z,13.28
2022-10-11T20:39:25.519Z,13.27
2022-10-11T20:41:53.698Z,13.26
2022-10-11T20:44:21.823Z,13.26
2022-10-11T20:46:50.232Z,13.25
2022-10-11T20:49:19.979Z,13.25
2022-10-11T20:51:49.038Z,13.25
2022-10-11T20:54:17.371Z,13.23
2022-10-11T20:56:45.654Z,13.22
2022-10-11T20:59:13.951Z,13.20
2022-10-11T21:01:42.831Z,13.18
2022-10-11T21:04:20.813Z,13.16
2022-10-11T21:06:49.242Z,13.15
2022-10-11T21:09:17.805Z,13.12
2022-10-11T21:11:46.467Z,13.10
2022-10-11T21:14:14.976Z,13.08
2022-10-11T21:16:43.241Z,13.06
2022-10-11T21:19:15.167Z,13.04
2022-10-11T21:21:46.438Z,13.02
2022-10-11T21:24:16.662Z,13.01
2022-10-11T21:26:44.677Z,12.98
2022-10-11T21:29:13.364Z,12.97
2022-10-11T21:31:41.416Z,12.96
2022-10-11T21:34:09.896Z,12.94
2022-10-11T21:36:38.619Z,12.93
2022-10-11T21:39:06.817Z,12.91
2022-10-11T21:41:35.097Z,12.89
2022-10-11T21:44:03.222Z,12.87
2022-10-11T21:47:01.328Z,12.85
2022-10-11T21:49:20.307Z,12.82
2022-10-11T21:51:48.336Z,12.80
2022-10-11T21:54:17.341Z,12.79
2022-10-11T21:56:45.366Z,12.77
2022-10-11T21:59:14.040Z,12.76
2022-10-11T22:01:43.826Z,12.73
2022-10-11T22:04:12.112Z,12.73
2022-10-11T22:06:40.518Z,12.72
2022-10-11T22:09:09.407Z,12.70
2022-10-11T22:11:37.827Z,12.70
2022-10-11T22:14:06.010Z,12.69
2022-10-11T22:16:36.203Z,12.67
2022-10-11T22:19:04.616Z,12.65
2022-10-11T22:21:32.664Z,12.64
2022-10-11T22:24:00.929Z,12.63
2022-10-11T22:26:31.228Z,12.62
2022-10-11T22:29:00.419Z,12.61
2022-10-11T22:31:29.988Z,12.61
2022-10-11T22:34:00.439Z,12.61
2022-10-11T22:36:33.954Z,12.60
2022-10-11T22:39:07.802Z,12.61
2022-10-11T22:41:36.096Z,12.61
2022-10-11T22:44:05.141Z,12.61
2022-10-11T22:46:35.523Z,12.61
2022-10-11T22:49:03.729Z,12.60
2022-10-11T22:51:35.937Z,12.59
2022-10-11T22:54:03.946Z,12.59
2022-10-11T22:56:32.137Z,12.57
2022-10-11T22:59:00.237Z,12.56
2022-10-11T23:01:28.352Z,12.55
2022-10-11T23:03:56.635Z,12.54
2022-10-11T23:06:24.640Z,12.52
2022-10-11T23:08:52.585Z,12.51
2022-10-11T23:11:20.555Z,12.51
2022-10-11T23:13:48.664Z,12.49
2022-10-11T23:16:16.859Z,12.48
2022-10-11T23:18:44.906Z,12.46
2022-10-11T23:21:13.365Z,12.44
2022-10-11T23:23:41.428Z,12.42
2022-10-11T23:26:13.858Z,12.40
2022-10-11T23:28:42.388Z,12.38
2022-10-11T23:31:14.123Z,12.36
2022-10-11T23:33:43.398Z,12.35
2022-10-11T23:36:20.355Z,12.34
2022-10-11T23:38:59.227Z,12.31
2022-10-11T23:41:29.368Z,12.30
2022-10-11T23:43:58.666Z,12.28
2022-10-11T23:46:26.669Z,12.27
2022-10-11T23:48:54.734Z,12.26
2022-10-11T23:51:22.835Z,12.25
2022-10-11T23:53:50.738Z,12.25
2022-10-11T23:56:18.691Z,12.24
2022-10-11T23:58:46.670Z,12.24
